Time;durP1;ratioP1;P1;durP2;ratioP2;P2;SDS_P1;SDS_P2;PMS_P1;PMS_P2;Temp;Humidity;BMP_temperature;BMP_pressure;BME280_temperature;BME280_humidity;BME280_pressure;Samples;Min_cycle;Max_cycle;Signal;HPM_P1;HPM_P2
2022/07/25 00:01:42;;;;;;;8.27;7.47;;;20.60;86.90;;;;;;5072236;28;20433;-75
2022/07/25 00:04:28;;;;;;;12.20;8.40;;;20.60;87.10;;;;;;5073214;28;21153;-75
2022/07/25 00:07:14;;;;;;;9.23;7.87;;;20.50;87.60;;;;;;5072462;28;20562;-75
2022/07/25 00:10:00;;;;;;;9.33;8.20;;;20.50;88.20;;;;;;5068900;28;20545;-75
2022/07/25 00:12:47;;;;;;;8.27;7.47;;;20.60;88.10;;;;;;5067641;28;21006;-75
2022/07/25 00:15:33;;;;;;;11.03;8.30;;;20.70;88.10;;;;;;5075074;28;20521;-75
2022/07/25 00:18:19;;;;;;;10.10;8.83;;;20.80;87.50;;;;;;5072141;28;20426;-75
2022/07/25 00:21:05;;;;;;;9.87;8.00;;;20.80;87.20;;;;;;5067508;28;20450;-75
2022/07/25 00:23:50;;;;;;;10.80;7.97;;;20.70;87.10;;;;;;5083667;28;20550;-76
2022/07/25 00:26:36;;;;;;;9.30;8.30;;;20.70;87.20;;;;;;5072765;28;20852;-76
2022/07/25 00:29:23;;;;;;;11.03;7.87;;;20.60;87.30;;;;;;5070809;28;20446;-76
2022/07/25 00:32:09;;;;;;;13.00;9.47;;;20.60;88.70;;;;;;5068156;28;20466;-76
2022/07/25 00:34:54;;;;;;;10.00;7.90;;;20.50;87.90;;;;;;5072008;28;20449;-75
2022/07/25 00:37:40;;;;;;;11.10;8.43;;;20.40;88.70;;;;;;5073770;28;20474;-76
2022/07/25 00:40:26;;;;;;;10.30;7.93;;;20.20;88.90;;;;;;5066699;28;20442;-75
2022/07/25 00:43:11;;;;;;;10.20;8.50;;;20.30;89.40;;;;;;5071776;28;20549;-75
2022/07/25 00:45:59;;;;;;;10.13;7.40;;;20.20;90.10;;;;;;5078206;28;20465;-76
2022/07/25 00:48:45;;;;;;;8.20;7.13;;;20.10;90.40;;;;;;5069475;28;20448;-76
2022/07/25 00:51:31;;;;;;;10.07;7.50;;;20.20;90.70;;;;;;5066905;28;20439;-76
2022/07/25 00:54:18;;;;;;;10.97;8.90;;;20.00;91.00;;;;;;5068833;28;21021;-76
2022/07/25 00:57:03;;;;;;;8.73;7.77;;;20.10;91.30;;;;;;5072072;28;20459;-76
2022/07/25 00:59:49;;;;;;;9.50;7.80;;;20.10;91.30;;;;;;5066241;28;20447;-76
2022/07/25 01:02:36;;;;;;;9.10;7.57;;;20.10;91.60;;;;;;5073895;28;20535;-76
2022/07/25 01:05:22;;;;;;;10.50;8.37;;;20.10;91.60;;;;;;5069903;28;21006;-76
2022/07/25 01:08:09;;;;;;;11.80;8.37;;;20.10;91.70;;;;;;5069009;28;20577;-76
2022/07/25 01:10:54;;;;;;;8.70;7.87;;;20.00;91.70;;;;;;5072173;28;20519;-76
2022/07/25 01:13:40;;;;;;;8.30;7.50;;;20.00;91.90;;;;;;5069710;22;20492;-72
2022/07/25 01:16:26;;;;;;;13.90;8.87;;;19.90;92.00;;;;;;5022282;28;20812;-71
2022/07/25 01:19:13;;;;;;;15.10;8.37;;;19.90;91.70;;;;;;5018423;28;20457;-71
2022/07/25 01:22:00;;;;;;;11.37;8.10;;;19.90;92.40;;;;;;5020850;28;20416;-71
2022/07/25 01:24:46;;;;;;;10.83;8.10;;;19.80;92.30;;;;;;5017704;28;20838;-71
2022/07/25 01:27:32;;;;;;;9.53;8.40;;;20.00;92.40;;;;;;5013603;28;20834;-72
2022/07/25 01:30:18;;;;;;;9.97;8.00;;;19.90;92.20;;;;;;5005187;28;20449;-73
2022/07/25 01:33:04;;;;;;;9.20;8.20;;;19.90;92.20;;;;;;5008476;28;20547;-71
2022/07/25 01:35:50;;;;;;;11.30;7.47;;;19.90;92.40;;;;;;5011696;28;20426;-71
2022/07/25 01:38:37;;;;;;;10.73;7.70;;;19.70;93.00;;;;;;5016282;28;20853;-71
2022/07/25 01:41:23;;;;;;;9.57;8.57;;;19.70;93.10;;;;;;5011088;28;20580;-71
2022/07/25 01:44:09;;;;;;;10.37;8.30;;;19.50;93.20;;;;;;5011247;28;20466;-71
2022/07/25 01:46:55;;;;;;;8.87;8.07;;;19.50;93.80;;;;;;5009073;28;20441;-71
2022/07/25 01:49:41;;;;;;;12.30;8.43;;;19.50;94.50;;;;;;5004409;28;20990;-71
2022/07/25 01:52:26;;;;;;;8.67;7.80;;;19.50;94.70;;;;;;5011393;28;20994;-72
2022/07/25 01:55:13;;;;;;;8.10;7.10;;;19.40;94.90;;;;;;5011148;28;20568;-71
2022/07/25 01:57:59;;;;;;;8.50;7.67;;;19.40;95.20;;;;;;5010430;28;20522;-72
2022/07/25 02:00:45;;;;;;;11.17;8.27;;;19.40;95.60;;;;;;5007033;28;20978;-72
2022/07/25 02:03:30;;;;;;;8.77;7.97;;;19.50;96.00;;;;;;5015512;28;20460;-71
2022/07/25 02:06:17;;;;;;;9.87;7.10;;;19.50;95.90;;;;;;5013045;28;20463;-71
2022/07/25 02:09:04;;;;;;;14.83;8.30;;;19.60;95.80;;;;;;5010917;28;20450;-72
2022/07/25 02:11:51;;;;;;;9.60;8.00;;;19.50;95.60;;;;;;5012047;28;20473;-71
2022/07/25 02:14:36;;;;;;;8.40;7.47;;;19.60;95.70;;;;;;5008518;28;21097;-72
2022/07/25 02:17:22;;;;;;;8.57;7.70;;;19.70;95.70;;;;;;5006212;28;20820;-72
2022/07/25 02:20:08;;;;;;;9.63;8.60;;;19.60;95.00;;;;;;5006615;28;20925;-72
2022/07/25 02:22:54;;;;;;;10.57;8.17;;;19.60;95.20;;;;;;5010770;28;20440;-72
2022/07/25 02:25:40;;;;;;;12.50;8.33;;;19.60;95.30;;;;;;5011898;28;20473;-72
2022/07/25 02:28:27;;;;;;;9.10;7.87;;;19.50;95.40;;;;;;5008101;28;20454;-71
2022/07/25 02:31:13;;;;;;;14.57;8.17;;;19.60;95.40;;;;;;5006641;28;20445;-72
2022/07/25 02:33:58;;;;;;;13.93;8.07;;;19.60;95.20;;;;;;5012433;28;20477;-72
2022/07/25 02:36:45;;;;;;;10.07;7.60;;;19.60;95.50;;;;;;5009836;28;20551;-71
2022/07/25 02:39:30;;;;;;;9.10;7.93;;;19.60;95.60;;;;;;5005987;28;20457;-72
2022/07/25 02:42:16;;;;;;;9.60;7.83;;;19.50;95.60;;;;;;5010408;28;20425;-71
2022/07/25 02:45:04;;;;;;;10.03;8.63;;;19.40;95.80;;;;;;5012778;28;20543;-71
2022/07/25 02:47:50;;;;;;;10.20;8.07;;;19.50;96.30;;;;;;5006857;28;20496;-72
2022/07/25 02:50:36;;;;;;;10.90;8.27;;;19.30;96.20;;;;;;5006585;28;20445;-71
2022/07/25 02:53:22;;;;;;;11.17;8.13;;;19.20;96.80;;;;;;5018046;28;21008;-72
2022/07/25 02:56:08;;;;;;;13.13;7.80;;;19.20;97.00;;;;;;5014056;28;21106;-72
2022/07/25 02:58:54;;;;;;;9.27;7.60;;;19.30;97.00;;;;;;5004400;28;20453;-72
2022/07/25 03:01:41;;;;;;;9.00;8.00;;;19.40;96.70;;;;;;5013840;28;20451;-72
2022/07/25 03:04:26;;;;;;;11.00;8.53;;;19.30;96.60;;;;;;5014711;28;20532;-71
2022/07/25 03:07:12;;;;;;;9.67;7.57;;;19.30;96.60;;;;;;5015871;28;20989;-71
2022/07/25 03:09:58;;;;;;;8.40;7.50;;;19.30;97.00;;;;;;5007192;28;20593;-71
2022/07/25 03:12:44;;;;;;;10.27;7.80;;;19.20;96.90;;;;;;5015342;28;20598;-72
2022/07/25 03:15:29;;;;;;;8.60;7.80;;;19.20;96.90;;;;;;5011500;28;20519;-71
2022/07/25 03:18:17;;;;;;;9.80;8.80;;;19.30;96.90;;;;;;5015154;28;20438;-71
2022/07/25 03:21:02;;;;;;;10.33;7.70;;;19.20;97.10;;;;;;5015962;28;20449;-71
2022/07/25 03:23:49;;;;;;;10.40;8.00;;;19.20;97.10;;;;;;5015718;28;20834;-71
2022/07/25 03:26:35;;;;;;;9.27;8.17;;;19.10;97.30;;;;;;5014630;28;20906;-72
2022/07/25 03:29:20;;;;;;;10.50;8.03;;;19.20;97.20;;;;;;5008112;28;20535;-71
2022/07/25 03:32:07;;;;;;;7.77;6.80;;;19.20;97.20;;;;;;5019098;28;20457;-71
2022/07/25 03:34:54;;;;;;;9.40;8.27;;;19.20;97.10;;;;;;5016296;28;20469;-72
2022/07/25 03:37:40;;;;;;;11.57;8.90;;;19.10;97.40;;;;;;5010323;28;20588;-71
2022/07/25 03:40:26;;;;;;;10.60;8.37;;;19.10;97.70;;;;;;5012363;28;20470;-72
2022/07/25 03:43:11;;;;;;;10.20;9.20;;;19.00;98.20;;;;;;5005886;28;20464;-72
2022/07/25 03:45:57;;;;;;;11.77;8.90;;;19.00;98.40;;;;;;5014858;28;20569;-71
2022/07/25 03:48:42;;;;;;;10.20;8.83;;;19.10;98.90;;;;;;5009482;28;20974;-71
2022/07/25 03:51:29;;;;;;;11.63;9.33;;;19.00;99.00;;;;;;5016729;28;20432;-71
2022/07/25 03:54:15;;;;;;;13.20;9.60;;;19.10;98.90;;;;;;5017859;28;20493;-71
2022/07/25 03:57:00;;;;;;;10.20;8.60;;;19.10;98.90;;;;;;5010427;28;20485;-71
2022/07/25 03:59:46;;;;;;;11.47;8.63;;;19.10;98.70;;;;;;5008923;28;20437;-71
2022/07/25 04:02:32;;;;;;;8.97;8.03;;;19.10;99.00;;;;;;5012474;28;20448;-71
2022/07/25 04:05:17;;;;;;;12.53;8.80;;;18.90;99.40;;;;;;5015028;28;20563;-72
2022/07/25 04:08:04;;;;;;;9.63;8.63;;;18.90;99.90;;;;;;5010277;28;21018;-71
2022/07/25 04:10:50;;;;;;;10.33;8.23;;;18.90;99.90;;;;;;5011912;28;20817;-72
2022/07/25 04:13:36;;;;;;;13.80;8.83;;;18.90;99.90;;;;;;5018322;28;20723;-72
2022/07/25 04:16:21;;;;;;;10.03;9.03;;;18.90;99.90;;;;;;5011865;28;20442;-71
2022/07/25 04:19:07;;;;;;;14.73;7.90;;;18.90;99.90;;;;;;5011070;28;20540;-71
2022/07/25 04:21:53;;;;;;;9.70;8.10;;;18.90;99.90;;;;;;5017913;28;20456;-72
2022/07/25 04:24:40;;;;;;;10.30;8.93;;;18.90;99.90;;;;;;5019815;28;20463;-71
2022/07/25 04:27:26;;;;;;;10.53;8.80;;;19.10;99.90;;;;;;5009735;28;20445;-71
2022/07/25 04:30:13;;;;;;;9.43;8.50;;;19.10;99.90;;;;;;5014476;28;20603;-71
2022/07/25 04:32:58;;;;;;;13.00;8.70;;;19.20;99.90;;;;;;5014226;28;20608;-71
2022/07/25 04:35:44;;;;;;;8.53;7.70;;;19.20;99.90;;;;;;5014869;28;20461;-71
2022/07/25 04:38:30;;;;;;;10.17;7.87;;;19.30;99.90;;;;;;5004737;28;20500;-72
2022/07/25 04:41:17;;;;;;;9.53;8.53;;;19.30;99.90;;;;;;5009575;28;20464;-72
2022/07/25 04:44:03;;;;;;;10.40;9.07;;;19.40;99.90;;;;;;5010218;28;20468;-71
2022/07/25 04:46:49;;;;;;;10.50;9.23;;;19.50;99.90;;;;;;5014802;28;20588;-71
2022/07/25 04:49:35;;;;;;;13.27;9.00;;;19.40;99.90;;;;;;5008769;28;20449;-72
2022/07/25 04:52:21;;;;;;;10.43;8.70;;;19.40;99.90;;;;;;5016890;28;20524;-71
2022/07/25 04:55:07;;;;;;;13.67;9.10;;;19.50;99.90;;;;;;5022901;28;21072;-72
2022/07/25 04:57:54;;;;;;;9.10;8.20;;;19.60;99.90;;;;;;5011966;28;20458;-72
2022/07/25 05:00:40;;;;;;;10.10;9.00;;;19.60;99.90;;;;;;5021220;28;20445;-72
2022/07/25 05:03:26;;;;;;;10.03;9.03;;;19.70;99.90;;;;;;5029727;28;20445;-72
2022/07/25 05:06:12;;;;;;;9.07;8.17;;;19.80;99.90;;;;;;5025599;28;20444;-72
2022/07/25 05:08:58;;;;;;;11.33;8.70;;;20.00;99.90;;;;;;5018381;28;20448;-71
2022/07/25 05:11:43;;;;;;;10.90;8.00;;;20.10;99.90;;;;;;5018274;28;20512;-71
2022/07/25 05:14:30;;;;;;;11.40;9.00;;;20.10;99.90;;;;;;5011603;28;20496;-72
2022/07/25 05:17:16;;;;;;;9.93;8.93;;;20.00;99.90;;;;;;5017452;28;20450;-72
2022/07/25 05:20:01;;;;;;;11.57;9.37;;;20.10;99.90;;;;;;5018671;28;20421;-71
2022/07/25 05:22:47;;;;;;;9.80;7.93;;;20.20;99.60;;;;;;5008770;28;20448;-71
2022/07/25 05:25:33;;;;;;;16.20;9.47;;;20.40;99.20;;;;;;5008526;28;20471;-70
2022/07/25 05:28:20;;;;;;;12.60;8.47;;;20.40;99.20;;;;;;5004565;28;21080;-70
2022/07/25 05:31:07;;;;;;;9.97;8.10;;;20.50;99.10;;;;;;5012347;28;20604;-71
2022/07/25 05:33:52;;;;;;;10.47;8.67;;;20.60;99.40;;;;;;5016407;28;20491;-71
2022/07/25 05:36:38;;;;;;;10.23;8.20;;;20.70;98.70;;;;;;5016993;28;20496;-70
2022/07/25 05:39:24;;;;;;;9.77;8.33;;;20.90;98.80;;;;;;5007549;28;20441;-70
2022/07/25 05:42:09;;;;;;;10.03;7.93;;;20.90;98.80;;;;;;5024796;28;20508;-71
2022/07/25 05:44:55;;;;;;;12.03;8.70;;;21.00;99.30;;;;;;5028190;28;20480;-71
2022/07/25 05:47:42;;;;;;;10.63;8.97;;;21.10;99.20;;;;;;5015200;28;20453;-71
2022/07/25 05:50:28;;;;;;;13.23;9.43;;;21.30;99.40;;;;;;5023305;28;20436;-71
2022/07/25 05:53:13;;;;;;;11.73;9.87;;;21.30;98.80;;;;;;5016331;28;20473;-71
2022/07/25 05:56:00;;;;;;;9.07;8.17;;;21.40;98.60;;;;;;5017786;28;20479;-71
2022/07/25 05:58:46;;;;;;;11.83;9.23;;;21.50;98.30;;;;;;5012459;28;20495;-71
2022/07/25 06:01:32;;;;;;;10.20;8.73;;;21.60;98.20;;;;;;5013289;28;20538;-71
2022/07/25 06:04:19;;;;;;;9.70;8.70;;;21.80;97.80;;;;;;5027617;28;20444;-71
2022/07/25 06:07:04;;;;;;;12.10;8.97;;;21.90;98.10;;;;;;5017708;28;21207;-70
2022/07/25 06:09:50;;;;;;;12.77;8.67;;;22.00;99.00;;;;;;5017685;28;20444;-71
2022/07/25 06:12:35;;;;;;;10.50;8.47;;;22.10;99.10;;;;;;5027794;28;20511;-71
2022/07/25 06:15:21;;;;;;;8.83;7.93;;;22.20;98.90;;;;;;5025019;28;20468;-71
2022/07/25 06:18:06;;;;;;;9.60;8.60;;;22.30;98.10;;;;;;5001916;28;20452;-71
2022/07/25 06:20:54;;;;;;;11.53;9.23;;;22.50;97.50;;;;;;5015671;28;20551;-71
2022/07/25 06:23:39;;;;;;;13.33;8.87;;;22.60;97.10;;;;;;5022017;28;20832;-71
2022/07/25 06:26:25;;;;;;;11.10;8.43;;;22.70;97.20;;;;;;5009252;28;20450;-71
2022/07/25 06:29:11;;;;;;;11.90;8.30;;;22.90;95.00;;;;;;5021982;28;20439;-71
2022/07/25 06:31:57;;;;;;;8.60;7.80;;;23.00;95.00;;;;;;5027528;28;20443;-71
2022/07/25 06:34:42;;;;;;;12.33;8.43;;;23.20;94.20;;;;;;5025442;28;20496;-71
2022/07/25 06:37:29;;;;;;;9.63;8.67;;;23.30;94.20;;;;;;5018242;28;20475;-71
2022/07/25 06:40:15;;;;;;;8.40;7.60;;;23.40;95.00;;;;;;5032082;28;20424;-71
2022/07/25 06:43:01;;;;;;;10.93;7.40;;;23.50;96.00;;;;;;5020320;28;20555;-71
2022/07/25 06:45:48;;;;;;;9.40;8.10;;;23.70;95.80;;;;;;5016732;28;20446;-71
2022/07/25 06:48:34;;;;;;;13.50;8.90;;;23.80;95.60;;;;;;5019316;28;20518;-71
2022/07/25 06:51:21;;;;;;;10.40;8.30;;;24.00;95.10;;;;;;5027648;28;20455;-71
2022/07/25 06:54:09;;;;;;;9.13;8.20;;;24.10;94.60;;;;;;5019347;28;20555;-71
2022/07/25 06:56:54;;;;;;;13.97;8.80;;;24.20;92.90;;;;;;5007742;28;20457;-71
2022/07/25 06:59:40;;;;;;;10.60;8.47;;;24.30;93.20;;;;;;5020087;28;20436;-71
2022/07/25 07:02:25;;;;;;;10.57;9.43;;;24.50;91.10;;;;;;5030633;28;20440;-71
2022/07/25 07:05:11;;;;;;;9.37;8.37;;;24.60;90.10;;;;;;5014740;28;20838;-71
2022/07/25 07:07:57;;;;;;;11.70;8.93;;;24.80;90.00;;;;;;5012356;28;20505;-71
2022/07/25 07:10:44;;;;;;;10.40;9.00;;;24.90;87.90;;;;;;5015669;28;20445;-71
2022/07/25 07:15:58;;;;;;;10.63;8.93;;;25.10;88.50;;;;;;5014227;28;20443;-71
2022/07/25 07:18:43;;;;;;;11.13;9.00;;;25.30;72.10;;;;;;5016893;28;20453;-74
2022/07/25 07:21:29;;;;;;;9.40;8.50;;;25.50;73.40;;;;;;5012994;28;20456;-73
2022/07/25 07:24:15;;;;;;;10.20;9.00;;;25.60;75.60;;;;;;5020612;28;20507;-73
2022/07/25 07:27:02;;;;;;;11.40;8.80;;;25.60;73.30;;;;;;5002009;28;20457;-74
2022/07/25 07:29:48;;;;;;;9.60;8.60;;;25.80;72.10;;;;;;5019257;28;20453;-71
2022/07/25 07:32:33;;;;;;;8.77;7.90;;;25.90;66.30;;;;;;5017263;28;20429;-74
2022/07/25 07:35:19;;;;;;;13.50;8.90;;;26.00;66.90;;;;;;5009136;28;20862;-72
2022/07/25 07:38:05;;;;;;;17.67;9.10;;;26.10;62.60;;;;;;5014244;28;20581;-74
2022/07/25 07:40:51;;;;;;;10.40;8.57;;;26.30;65.10;;;;;;5020124;28;20428;-74
2022/07/25 07:43:38;;;;;;;8.33;7.53;;;26.40;64.90;;;;;;5014614;28;20587;-74
2022/07/25 07:46:24;;;;;;;8.70;7.80;;;26.50;62.10;;;;;;5008898;28;20541;-74
2022/07/25 07:49:09;;;;;;;8.43;7.53;;;26.60;60.00;;;;;;5017957;28;20460;-74
2022/07/25 07:51:55;;;;;;;8.80;7.57;;;26.70;56.10;;;;;;5014317;28;20425;-74
2022/07/25 07:57:44;;;;;;;10.73;8.63;;;26.90;54.70;;;;;;5009919;28;20790;-74
2022/07/25 08:00:33;;;;;;;9.37;8.30;;;27.00;50.10;;;;;;5012408;28;20442;-73
2022/07/25 08:03:20;;;;;;;11.80;7.80;;;27.10;50.50;;;;;;5013971;28;20794;-74
2022/07/25 08:06:06;;;;;;;8.33;7.53;;;27.20;49.00;;;;;;5011061;28;20450;-73
2022/07/25 08:08:52;;;;;;;10.13;9.03;;;27.40;48.00;;;;;;5012841;28;20448;-73
2022/07/25 08:11:37;;;;;;;8.40;7.60;;;27.40;48.90;;;;;;5015466;28;20449;-73
2022/07/25 08:14:23;;;;;;;11.13;8.83;;;27.40;46.80;;;;;;5015729;28;20624;-74
2022/07/25 08:17:10;;;;;;;10.43;9.33;;;27.40;47.40;;;;;;5007310;28;20468;-74
2022/07/25 08:19:55;;;;;;;10.80;8.03;;;27.40;48.10;;;;;;5016016;28;20553;-74
2022/07/25 08:22:44;;;;;;;10.47;8.10;;;27.50;46.90;;;;;;5017488;28;20445;-73
2022/07/25 08:25:31;;;;;;;10.20;8.00;;;27.50;46.80;;;;;;5007391;28;20461;-74
2022/07/25 08:28:16;;;;;;;13.33;8.40;;;27.60;47.00;;;;;;5013548;28;20520;-74
2022/07/25 08:31:02;;;;;;;9.47;8.57;;;27.70;48.30;;;;;;5003896;28;20449;-74
2022/07/25 08:33:48;;;;;;;11.87;7.80;;;27.70;45.40;;;;;;5016738;28;20826;-73
2022/07/25 08:36:34;;;;;;;12.30;8.30;;;27.80;46.80;;;;;;5010235;28;20500;-74
2022/07/25 08:39:20;;;;;;;10.60;8.67;;;27.80;46.40;;;;;;5019041;28;20437;-74
2022/07/25 08:42:06;;;;;;;10.20;8.47;;;27.80;44.10;;;;;;5014274;28;20444;-73
2022/07/25 08:44:59;;;;;;;10.90;8.73;;;27.90;44.10;;;;;;5013882;28;21110;-74
2022/07/25 08:47:46;;;;;;;9.37;8.23;;;27.90;43.30;;;;;;5011204;28;20496;-73
2022/07/25 08:50:33;;;;;;;11.70;8.43;;;28.00;42.90;;;;;;5016714;28;20440;-74
2022/07/25 08:53:19;;;;;;;11.03;9.27;;;28.10;44.50;;;;;;5014549;28;20442;-74
2022/07/25 08:56:07;;;;;;;10.27;9.17;;;28.10;44.00;;;;;;5000241;28;20472;-74
2022/07/25 08:58:55;;;;;;;10.70;9.27;;;28.20;42.00;;;;;;5019043;28;20433;-74
2022/07/25 09:01:40;;;;;;;9.47;8.47;;;28.30;42.90;;;;;;5011744;28;20441;-74
2022/07/25 09:04:27;;;;;;;10.00;8.40;;;28.30;44.90;;;;;;5017187;28;20456;-72
2022/07/25 09:07:14;;;;;;;11.07;8.90;;;28.40;41.90;;;;;;5007248;28;20922;-74
2022/07/25 09:10:10;;;;;;;10.07;9.07;;;28.50;45.00;;;;;;5014873;28;20965;-74
2022/07/25 09:12:58;;;;;;;12.67;9.73;;;28.50;40.90;;;;;;5011115;28;20449;-74
2022/07/25 09:15:47;;;;;;;17.10;9.57;;;28.60;41.90;;;;;;5002369;28;20484;-74
2022/07/25 09:18:35;;;;;;;13.10;8.80;;;28.70;42.20;;;;;;5007524;28;20441;-74
2022/07/25 09:21:21;;;;;;;10.40;9.40;;;28.70;41.80;;;;;;4998758;28;20457;-74
2022/07/25 09:24:15;;;;;;;10.23;9.13;;;28.80;40.70;;;;;;5008009;28;20943;-74
2022/07/25 09:27:08;;;;;;;10.67;8.83;;;28.80;40.30;;;;;;5008078;28;20513;-73
2022/07/25 09:29:54;;;;;;;11.97;8.53;;;28.90;40.20;;;;;;5008160;28;20503;-74
2022/07/25 09:32:41;;;;;;;10.23;8.67;;;29.00;39.30;;;;;;5005708;28;20457;-74
2022/07/25 09:35:30;;;;;;;11.23;9.03;;;29.10;41.00;;;;;;4999252;28;20478;-74
2022/07/25 09:38:17;;;;;;;15.27;8.80;;;29.20;42.60;;;;;;5013356;28;20503;-74
2022/07/25 09:41:06;;;;;;;9.27;7.63;;;29.30;38.90;;;;;;5004400;28;20573;-74
2022/07/25 09:43:51;;;;;;;10.70;8.27;;;29.40;37.10;;;;;;5008519;28;20488;-74
2022/07/25 09:46:37;;;;;;;8.97;8.07;;;29.50;39.60;;;;;;5006540;28;20538;-74
2022/07/25 09:49:23;;;;;;;11.37;8.40;;;29.60;36.90;;;;;;5018723;28;20584;-74
2022/07/25 09:52:09;;;;;;;9.77;8.87;;;29.70;36.00;;;;;;5010356;28;20533;-74
2022/07/25 09:54:55;;;;;;;11.90;9.10;;;29.70;36.70;;;;;;4994948;28;20474;-74
2022/07/25 09:57:44;;;;;;;9.50;8.10;;;29.80;34.70;;;;;;5016056;28;20957;-74
2022/07/25 10:00:32;;;;;;;9.77;8.77;;;29.90;35.80;;;;;;5001493;28;20437;-75
2022/07/25 10:03:25;;;;;;;9.60;8.60;;;30.00;34.60;;;;;;5012564;28;20429;-74
2022/07/25 10:06:20;;;;;;;9.77;8.00;;;30.10;34.70;;;;;;5002889;28;20929;-74
2022/07/25 10:09:11;;;;;;;13.70;9.30;;;30.20;33.60;;;;;;5010168;28;20448;-74
2022/07/25 10:12:05;;;;;;;8.77;7.90;;;30.40;35.00;;;;;;5003575;28;20460;-74
2022/07/25 10:15:10;;;;;;;11.60;8.20;;;30.50;32.50;;;;;;5004509;28;20546;-73
2022/07/25 10:18:05;;;;;;;9.60;8.57;;;30.50;33.60;;;;;;5008443;28;20730;-74
2022/07/25 10:20:53;;;;;;;11.17;9.50;;;30.50;33.10;;;;;;5007212;28;20791;-74
2022/07/25 10:23:39;;;;;;;9.60;8.60;;;30.60;30.70;;;;;;5009558;28;20561;-76
2022/07/25 10:26:25;;;;;;;10.83;8.10;;;30.50;31.10;;;;;;5007088;28;20521;-75
2022/07/25 10:29:11;;;;;;;10.37;8.73;;;30.60;31.40;;;;;;5006409;28;20446;-75
2022/07/25 10:32:06;;;;;;;12.03;8.20;;;30.70;32.30;;;;;;5009025;28;20518;-73
2022/07/25 10:34:53;;;;;;;8.33;7.30;;;30.70;32.20;;;;;;4997080;28;20473;-75
2022/07/25 10:37:39;;;;;;;8.90;8.00;;;30.70;30.20;;;;;;5004576;28;20441;-75
2022/07/25 10:40:32;;;;;;;8.57;7.77;;;30.70;32.80;;;;;;5002855;28;20438;-74
2022/07/25 10:43:19;;;;;;;9.50;8.60;;;30.50;31.80;;;;;;5002889;28;20824;-73
2022/07/25 10:46:12;;;;;;;8.87;7.80;;;30.40;31.30;;;;;;5010373;28;20434;-74
2022/07/25 10:49:04;;;;;;;9.70;8.03;;;30.40;31.40;;;;;;5008427;28;20582;-74
2022/07/25 10:51:56;;;;;;;9.27;8.10;;;30.50;29.40;;;;;;5008851;28;20445;-74
2022/07/25 10:54:52;;;;;;;9.40;8.50;;;30.40;30.00;;;;;;5002188;28;20581;-74
2022/07/25 10:57:37;;;;;;;9.50;8.20;;;30.40;29.90;;;;;;5015283;28;20956;-74
2022/07/25 11:00:23;;;;;;;9.33;8.33;;;30.50;31.90;;;;;;5009898;28;20808;-74
2022/07/25 11:03:09;;;;;;;9.47;8.47;;;30.70;30.20;;;;;;5006756;28;20453;-74
2022/07/25 11:05:56;;;;;;;8.37;7.57;;;30.90;29.70;;;;;;5005225;28;20975;-73
2022/07/25 11:08:43;;;;;;;9.57;8.57;;;31.00;29.40;;;;;;5004216;28;20449;-74
2022/07/25 11:11:37;;;;;;;9.87;8.80;;;31.20;29.20;;;;;;5012770;28;20822;-73
2022/07/25 11:14:24;;;;;;;11.60;7.80;;;31.30;29.90;;;;;;5003161;28;20484;-74
2022/07/25 11:17:14;;;;;;;11.97;8.07;;;31.50;29.70;;;;;;5015748;28;20466;-74
2022/07/25 11:20:02;;;;;;;10.27;7.90;;;31.60;27.70;;;;;;5010262;28;20441;-74
2022/07/25 11:22:53;;;;;;;8.70;7.90;;;31.70;28.50;;;;;;5014597;28;20552;-74
2022/07/25 11:25:41;;;;;;;7.67;6.80;;;31.80;27.10;;;;;;5008997;28;20449;-74
2022/07/25 11:28:38;;;;;;;10.23;8.03;;;31.80;26.20;;;;;;5012922;28;20571;-74
2022/07/25 11:31:23;;;;;;;8.30;7.40;;;31.80;26.00;;;;;;5009380;28;20457;-74
2022/07/25 11:34:09;;;;;;;9.80;7.80;;;31.80;28.10;;;;;;5004382;28;20473;-74
2022/07/25 11:36:57;;;;;;;8.83;7.70;;;31.70;26.70;;;;;;5017038;28;20484;-74
2022/07/25 11:39:45;;;;;;;8.77;7.50;;;31.60;26.80;;;;;;5018513;28;20453;-74
2022/07/25 11:42:40;;;;;;;11.20;7.60;;;31.60;27.60;;;;;;5029122;28;20427;-74
2022/07/25 11:45:27;;;;;;;9.80;7.57;;;31.50;27.00;;;;;;5007425;28;20996;-75
2022/07/25 11:48:14;;;;;;;11.67;8.10;;;31.50;27.30;;;;;;5000378;28;20446;-74
2022/07/25 11:51:10;;;;;;;8.10;7.00;;;31.40;28.80;;;;;;5016075;28;20571;-75
2022/07/25 11:53:56;;;;;;;9.60;8.30;;;31.40;27.20;;;;;;5000727;28;20961;-74
2022/07/25 11:56:45;;;;;;;8.13;7.33;;;31.40;27.90;;;;;;5011275;28;20638;-75
2022/07/25 11:59:41;;;;;;;8.47;7.20;;;31.70;26.90;;;;;;5011978;28;20449;-74
2022/07/25 12:02:29;;;;;;;8.70;7.90;;;31.90;27.00;;;;;;5009790;28;20811;-74
2022/07/25 12:05:17;;;;;;;9.50;7.60;;;32.00;27.10;;;;;;5008712;28;20716;-74
2022/07/25 12:08:10;;;;;;;18.30;7.90;;;32.00;26.10;;;;;;5015916;28;20441;-73
2022/07/25 12:10:56;;;;;;;8.53;7.60;;;32.00;27.60;;;;;;5013010;28;20449;-74
2022/07/25 12:13:43;;;;;;;11.13;8.27;;;32.00;27.80;;;;;;5004957;28;20590;-73
2022/07/25 12:16:28;;;;;;;8.80;7.90;;;32.10;27.30;;;;;;5016647;28;20469;-73
2022/07/25 12:19:22;;;;;;;9.00;8.10;;;32.30;27.00;;;;;;5022361;28;20548;-74
2022/07/25 12:22:07;;;;;;;11.10;9.87;;;32.40;27.80;;;;;;5011080;28;20561;-73
2022/07/25 12:24:53;;;;;;;9.70;8.27;;;32.50;26.70;;;;;;5008601;28;21089;-74
2022/07/25 12:27:39;;;;;;;8.70;7.90;;;32.60;26.30;;;;;;5015325;28;20453;-73
2022/07/25 12:30:26;;;;;;;14.30;8.40;;;32.70;26.70;;;;;;5012425;28;20587;-73
2022/07/25 12:33:13;;;;;;;9.13;8.03;;;32.90;26.40;;;;;;5005730;28;20457;-74
2022/07/25 12:36:00;;;;;;;10.43;8.53;;;32.90;25.80;;;;;;5005406;28;20476;-74
2022/07/25 12:38:46;;;;;;;9.60;8.70;;;33.10;29.00;;;;;;5014566;28;20438;-74
2022/07/25 12:41:31;;;;;;;10.30;8.30;;;33.10;25.20;;;;;;5013935;28;20460;-74
2022/07/25 12:44:17;;;;;;;8.30;7.50;;;33.20;26.20;;;;;;5003649;28;20871;-73
2022/07/25 12:47:04;;;;;;;10.13;8.93;;;33.30;25.10;;;;;;5011341;28;20778;-73
2022/07/25 12:49:49;;;;;;;8.37;7.53;;;33.30;26.00;;;;;;5004909;28;20418;-74
2022/07/25 12:52:37;;;;;;;10.07;8.53;;;33.30;26.10;;;;;;5011923;28;20817;-74
2022/07/25 12:55:22;;;;;;;11.90;9.13;;;33.40;25.90;;;;;;5012705;28;20524;-74
2022/07/25 12:58:08;;;;;;;10.30;9.30;;;33.50;25.10;;;;;;5006741;28;20438;-74
2022/07/25 13:00:54;;;;;;;12.27;9.50;;;33.40;24.70;;;;;;5007742;28;20422;-74
2022/07/25 13:03:41;;;;;;;9.40;8.40;;;33.30;25.80;;;;;;5006893;28;20498;-74
2022/07/25 13:06:27;;;;;;;9.40;8.50;;;33.10;25.70;;;;;;5009418;28;20582;-73
2022/07/25 13:09:12;;;;;;;11.40;9.47;;;33.10;26.00;;;;;;5019093;28;20448;-73
2022/07/25 13:11:58;;;;;;;9.47;7.90;;;32.90;25.60;;;;;;5009161;28;20445;-74
2022/07/25 13:14:44;;;;;;;15.50;9.07;;;32.80;26.80;;;;;;5033294;22;20487;-74
2022/07/25 13:17:31;;;;;;;9.67;8.70;;;32.70;26.90;;;;;;5033459;28;20480;-74
2022/07/25 13:20:18;;;;;;;10.00;8.83;;;32.60;27.30;;;;;;5037083;28;20972;-74
2022/07/25 13:23:04;;;;;;;14.27;8.87;;;32.40;27.60;;;;;;5017242;28;20456;-74
2022/07/25 13:25:49;;;;;;;9.40;8.43;;;32.40;27.80;;;;;;5032512;28;20976;-74
2022/07/25 13:28:35;;;;;;;12.00;8.57;;;32.30;27.30;;;;;;5034145;28;21104;-74
2022/07/25 13:31:21;;;;;;;11.03;8.90;;;32.20;28.10;;;;;;5032183;28;20448;-74
2022/07/25 13:34:08;;;;;;;9.83;8.93;;;32.00;28.40;;;;;;5030422;28;20478;-74
2022/07/25 13:36:54;;;;;;;9.73;8.73;;;31.90;29.00;;;;;;5032675;28;20499;-75
2022/07/25 13:39:41;;;;;;;13.83;9.43;;;31.80;30.00;;;;;;5031148;28;20457;-74
2022/07/25 13:42:27;;;;;;;18.87;9.80;;;31.50;31.40;;;;;;5029845;28;20456;-74
2022/07/25 13:45:13;;;;;;;11.70;9.60;;;31.30;33.00;;;;;;5033559;28;20988;-75
2022/07/25 13:47:58;;;;;;;15.03;9.43;;;31.10;35.00;;;;;;5041089;28;20463;-75
2022/07/25 13:50:44;;;;;;;12.37;8.60;;;31.00;35.40;;;;;;5036735;28;20440;-74
2022/07/25 13:53:31;;;;;;;12.67;8.53;;;30.90;35.90;;;;;;5021742;28;20804;-74
2022/07/25 13:56:17;;;;;;;9.33;8.20;;;30.80;36.00;;;;;;5035852;28;20483;-75
2022/07/25 13:59:03;;;;;;;16.77;9.37;;;30.80;38.40;;;;;;5038860;28;21079;-75
2022/07/25 14:01:49;;;;;;;9.67;8.67;;;30.70;40.80;;;;;;5031631;28;20455;-74
2022/07/25 14:04:34;;;;;;;10.13;9.10;;;30.60;38.40;;;;;;5034076;28;20463;-74
2022/07/25 14:07:20;;;;;;;12.23;9.30;;;30.60;39.90;;;;;;5034602;28;20452;-74
2022/07/25 14:10:08;;;;;;;9.70;7.80;;;30.40;42.70;;;;;;5036723;28;20952;-74
2022/07/25 14:12:53;;;;;;;9.83;8.83;;;30.40;45.20;;;;;;5025298;28;21030;-74
2022/07/25 14:15:39;;;;;;;12.23;8.20;;;30.20;42.70;;;;;;5039752;28;20521;-74
2022/07/25 14:18:25;;;;;;;13.70;7.93;;;30.10;44.90;;;;;;5033327;28;20460;-75
2022/07/25 14:21:11;;;;;;;13.03;7.87;;;30.00;47.70;;;;;;5027707;28;20447;-75
2022/07/25 14:23:57;;;;;;;17.83;7.90;;;29.90;53.10;;;;;;5035537;28;20451;-74
2022/07/25 14:26:44;;;;;;;11.57;8.80;;;29.80;57.00;;;;;;5044943;28;20435;-75